sensor_id;sensor_type;location;lat;lon;timestamp;P1;durP1;ratioP1;P2;durP2;ratioP2
59006;SDS011;44792;52.760;6.726;2024-02-15T00:00:09;26.38;;;14.23;;
59006;SDS011;44792;52.760;6.726;2024-02-15T00:02:36;28.38;;;15.50;;
59006;SDS011;44792;52.760;6.726;2024-02-15T00:05:02;32.40;;;14.65;;
59006;SDS011;44792;52.760;6.726;2024-02-15T00:07:27;27.10;;;13.80;;
59006;SDS011;44792;52.760;6.726;2024-02-15T00:09:53;22.60;;;13.45;;
59006;SDS011;44792;52.760;6.726;2024-02-15T00:12:19;28.42;;;13.95;;
59006;SDS011;44792;52.760;6.726;2024-02-15T00:14:45;31.67;;;13.43;;
59006;SDS011;44792;52.760;6.726;2024-02-15T00:17:11;24.38;;;12.63;;
59006;SDS011;44792;52.760;6.726;2024-02-15T00:19:37;30.40;;;13.13;;
59006;SDS011;44792;52.760;6.726;2024-02-15T00:22:05;24.67;;;11.98;;
59006;SDS011;44792;52.760;6.726;2024-02-15T00:24:30;22.90;;;12.10;;
59006;SDS011;44792;52.760;6.726;2024-02-15T00:26:57;25.48;;;12.60;;
59006;SDS011;44792;52.760;6.726;2024-02-15T00:29:22;20.80;;;11.65;;
59006;SDS011;44792;52.760;6.726;2024-02-15T00:31:49;24.60;;;11.82;;
59006;SDS011;44792;52.760;6.726;2024-02-15T00:34:15;19.73;;;10.65;;
59006;SDS011;44792;52.760;6.726;2024-02-15T00:36:42;24.80;;;10.95;;
59006;SDS011;44792;52.760;6.726;2024-02-15T00:39:09;20.80;;;10.55;;
59006;SDS011;44792;52.760;6.726;2024-02-15T00:41:36;17.20;;;10.27;;
59006;SDS011;44792;52.760;6.726;2024-02-15T00:44:09;21.92;;;11.45;;
59006;SDS011;44792;52.760;6.726;2024-02-15T00:46:36;23.20;;;10.88;;
59006;SDS011;44792;52.760;6.726;2024-02-15T00:49:02;19.00;;;11.45;;
59006;SDS011;44792;52.760;6.726;2024-02-15T00:51:31;18.33;;;10.10;;
59006;SDS011;44792;52.760;6.726;2024-02-15T00:53:59;23.70;;;11.57;;
59006;SDS011;44792;52.760;6.726;2024-02-15T00:56:25;19.80;;;11.80;;
59006;SDS011;44792;52.760;6.726;2024-02-15T00:58:51;23.73;;;12.27;;
59006;SDS011;44792;52.760;6.726;2024-02-15T01:01:17;25.60;;;12.45;;
59006;SDS011;44792;52.760;6.726;2024-02-15T01:03:42;29.58;;;13.02;;
59006;SDS011;44792;52.760;6.726;2024-02-15T01:06:08;23.10;;;13.02;;
59006;SDS011;44792;52.760;6.726;2024-02-15T01:08:34;25.15;;;12.27;;
59006;SDS011;44792;52.760;6.726;2024-02-15T01:10:59;24.88;;;13.52;;
59006;SDS011;44792;52.760;6.726;2024-02-15T01:13:25;26.55;;;13.90;;
59006;SDS011;44792;52.760;6.726;2024-02-15T01:15:51;30.25;;;13.73;;
59006;SDS011;44792;52.760;6.726;2024-02-15T01:18:16;29.27;;;13.20;;
59006;SDS011;44792;52.760;6.726;2024-02-15T01:20:42;31.13;;;13.77;;
59006;SDS011;44792;52.760;6.726;2024-02-15T01:23:08;29.08;;;14.25;;
59006;SDS011;44792;52.760;6.726;2024-02-15T01:25:34;26.98;;;12.88;;
59006;SDS011;44792;52.760;6.726;2024-02-15T01:28:00;25.63;;;13.73;;
59006;SDS011;44792;52.760;6.726;2024-02-15T01:30:27;32.05;;;14.48;;
59006;SDS011;44792;52.760;6.726;2024-02-15T01:32:54;28.48;;;13.25;;
59006;SDS011;44792;52.760;6.726;2024-02-15T01:35:20;36.90;;;14.70;;
59006;SDS011;44792;52.760;6.726;2024-02-15T01:37:45;28.38;;;13.27;;
59006;SDS011;44792;52.760;6.726;2024-02-15T01:40:11;34.10;;;14.60;;
59006;SDS011;44792;52.760;6.726;2024-02-15T01:42:38;29.15;;;13.65;;
59006;SDS011;44792;52.760;6.726;2024-02-15T01:45:05;29.92;;;13.85;;
59006;SDS011;44792;52.760;6.726;2024-02-15T01:47:31;30.60;;;13.43;;
59006;SDS011;44792;52.760;6.726;2024-02-15T01:49:57;26.55;;;12.75;;
59006;SDS011;44792;52.760;6.726;2024-02-15T01:52:23;26.88;;;12.45;;
59006;SDS011;44792;52.760;6.726;2024-02-15T01:54:50;32.40;;;14.07;;
59006;SDS011;44792;52.760;6.726;2024-02-15T01:57:18;27.48;;;13.15;;
59006;SDS011;44792;52.760;6.726;2024-02-15T01:59:46;26.20;;;12.90;;
59006;SDS011;44792;52.760;6.726;2024-02-15T02:02:12;28.05;;;13.82;;
59006;SDS011;44792;52.760;6.726;2024-02-15T02:04:41;32.17;;;13.40;;
59006;SDS011;44792;52.760;6.726;2024-02-15T02:07:07;31.13;;;12.93;;
59006;SDS011;44792;52.760;6.726;2024-02-15T02:09:34;30.25;;;13.10;;
59006;SDS011;44792;52.760;6.726;2024-02-15T02:11:59;34.80;;;14.10;;
59006;SDS011;44792;52.760;6.726;2024-02-15T02:14:25;29.67;;;13.40;;
59006;SDS011;44792;52.760;6.726;2024-02-15T02:16:51;24.42;;;13.00;;
59006;SDS011;44792;52.760;6.726;2024-02-15T02:19:16;32.75;;;14.00;;
59006;SDS011;44792;52.760;6.726;2024-02-15T02:21:42;31.60;;;13.13;;
59006;SDS011;44792;52.760;6.726;2024-02-15T02:24:13;26.17;;;12.65;;
59006;SDS011;44792;52.760;6.726;2024-02-15T02:26:43;22.67;;;12.05;;
59006;SDS011;44792;52.760;6.726;2024-02-15T02:29:09;25.75;;;12.77;;
59006;SDS011;44792;52.760;6.726;2024-02-15T02:31:35;28.25;;;12.30;;
59006;SDS011;44792;52.760;6.726;2024-02-15T02:34:01;24.75;;;12.85;;
59006;SDS011;44792;52.760;6.726;2024-02-15T02:36:27;25.63;;;11.45;;
59006;SDS011;44792;52.760;6.726;2024-02-15T02:38:54;25.10;;;12.52;;
59006;SDS011;44792;52.760;6.726;2024-02-15T02:41:20;29.13;;;12.88;;
59006;SDS011;44792;52.760;6.726;2024-02-15T02:43:46;24.60;;;11.57;;
59006;SDS011;44792;52.760;6.726;2024-02-15T02:46:12;25.33;;;12.30;;
59006;SDS011;44792;52.760;6.726;2024-02-15T02:48:38;27.23;;;12.18;;
59006;SDS011;44792;52.760;6.726;2024-02-15T02:51:04;25.17;;;10.90;;
59006;SDS011;44792;52.760;6.726;2024-02-15T02:53:31;24.42;;;10.98;;
59006;SDS011;44792;52.760;6.726;2024-02-15T02:55:57;27.73;;;13.00;;
59006;SDS011;44792;52.760;6.726;2024-02-15T02:58:23;25.50;;;11.50;;
59006;SDS011;44792;52.760;6.726;2024-02-15T03:00:49;22.35;;;11.73;;
59006;SDS011;44792;52.760;6.726;2024-02-15T03:03:15;28.90;;;13.23;;
59006;SDS011;44792;52.760;6.726;2024-02-15T03:05:41;22.67;;;13.63;;
59006;SDS011;44792;52.760;6.726;2024-02-15T03:08:13;25.80;;;14.02;;
59006;SDS011;44792;52.760;6.726;2024-02-15T03:10:38;23.47;;;14.23;;
59006;SDS011;44792;52.760;6.726;2024-02-15T03:13:05;28.10;;;14.93;;
59006;SDS011;44792;52.760;6.726;2024-02-15T03:15:34;29.33;;;14.13;;
59006;SDS011;44792;52.760;6.726;2024-02-15T03:18:03;29.77;;;15.63;;
59006;SDS011;44792;52.760;6.726;2024-02-15T03:20:32;29.88;;;16.60;;
59006;SDS011;44792;52.760;6.726;2024-02-15T03:22:59;30.58;;;16.13;;
59006;SDS011;44792;52.760;6.726;2024-02-15T03:25:26;31.25;;;16.95;;
59006;SDS011;44792;52.760;6.726;2024-02-15T03:27:57;32.78;;;18.08;;
59006;SDS011;44792;52.760;6.726;2024-02-15T03:30:25;29.35;;;16.27;;
59006;SDS011;44792;52.760;6.726;2024-02-15T03:32:52;29.83;;;16.27;;
59006;SDS011;44792;52.760;6.726;2024-02-15T03:35:19;42.08;;;17.73;;
59006;SDS011;44792;52.760;6.726;2024-02-15T03:37:47;39.53;;;16.35;;
59006;SDS011;44792;52.760;6.726;2024-02-15T03:40:17;33.55;;;17.40;;
59006;SDS011;44792;52.760;6.726;2024-02-15T03:42:46;28.90;;;16.00;;
59006;SDS011;44792;52.760;6.726;2024-02-15T03:45:12;36.50;;;16.10;;
59006;SDS011;44792;52.760;6.726;2024-02-15T03:47:38;28.92;;;16.83;;
59006;SDS011;44792;52.760;6.726;2024-02-15T03:50:07;32.50;;;17.15;;
59006;SDS011;44792;52.760;6.726;2024-02-15T03:52:37;34.97;;;16.27;;
59006;SDS011;44792;52.760;6.726;2024-02-15T03:55:04;38.25;;;17.33;;
59006;SDS011;44792;52.760;6.726;2024-02-15T03:57:32;38.65;;;16.38;;
59006;SDS011;44792;52.760;6.726;2024-02-15T03:59:58;31.23;;;15.82;;
59006;SDS011;44792;52.760;6.726;2024-02-15T04:02:25;32.30;;;17.05;;
59006;SDS011;44792;52.760;6.726;2024-02-15T04:04:55;38.20;;;16.48;;
59006;SDS011;44792;52.760;6.726;2024-02-15T04:07:22;27.17;;;15.80;;
59006;SDS011;44792;52.760;6.726;2024-02-15T04:09:50;30.05;;;17.75;;
59006;SDS011;44792;52.760;6.726;2024-02-15T04:12:16;34.65;;;17.20;;
59006;SDS011;44792;52.760;6.726;2024-02-15T04:14:43;33.08;;;17.65;;
59006;SDS011;44792;52.760;6.726;2024-02-15T04:17:10;36.45;;;18.73;;
59006;SDS011;44792;52.760;6.726;2024-02-15T04:19:39;38.65;;;18.13;;
59006;SDS011;44792;52.760;6.726;2024-02-15T04:22:05;38.10;;;18.77;;
59006;SDS011;44792;52.760;6.726;2024-02-15T04:24:36;39.13;;;17.80;;
59006;SDS011;44792;52.760;6.726;2024-02-15T04:27:08;35.13;;;19.15;;
59006;SDS011;44792;52.760;6.726;2024-02-15T04:29:36;36.55;;;20.33;;
59006;SDS011;44792;52.760;6.726;2024-02-15T04:32:06;36.83;;;19.08;;
59006;SDS011;44792;52.760;6.726;2024-02-15T04:34:37;42.50;;;20.95;;
59006;SDS011;44792;52.760;6.726;2024-02-15T04:37:02;40.40;;;19.88;;
59006;SDS011;44792;52.760;6.726;2024-02-15T04:39:32;39.70;;;21.33;;
59006;SDS011;44792;52.760;6.726;2024-02-15T04:41:58;39.25;;;20.95;;
59006;SDS011;44792;52.760;6.726;2024-02-15T04:44:25;49.08;;;21.30;;
59006;SDS011;44792;52.760;6.726;2024-02-15T04:46:52;42.20;;;21.83;;
59006;SDS011;44792;52.760;6.726;2024-02-15T04:49:19;40.95;;;20.60;;
59006;SDS011;44792;52.760;6.726;2024-02-15T04:51:45;42.53;;;21.48;;
59006;SDS011;44792;52.760;6.726;2024-02-15T04:54:12;40.00;;;21.30;;
59006;SDS011;44792;52.760;6.726;2024-02-15T04:56:41;39.65;;;21.33;;
59006;SDS011;44792;52.760;6.726;2024-02-15T04:59:08;41.28;;;21.88;;
59006;SDS011;44792;52.760;6.726;2024-02-15T05:01:37;39.88;;;21.48;;
59006;SDS011;44792;52.760;6.726;2024-02-15T05:04:03;39.70;;;20.65;;
59006;SDS011;44792;52.760;6.726;2024-02-15T05:06:32;35.13;;;19.67;;
59006;SDS011;44792;52.760;6.726;2024-02-15T05:08:58;36.13;;;20.95;;
59006;SDS011;44792;52.760;6.726;2024-02-15T05:11:25;37.15;;;22.38;;
59006;SDS011;44792;52.760;6.726;2024-02-15T05:13:51;43.45;;;21.08;;
59006;SDS011;44792;52.760;6.726;2024-02-15T05:16:17;39.60;;;22.20;;
59006;SDS011;44792;52.760;6.726;2024-02-15T05:18:43;44.40;;;22.27;;
59006;SDS011;44792;52.760;6.726;2024-02-15T05:21:10;41.88;;;23.15;;
59006;SDS011;44792;52.760;6.726;2024-02-15T05:23:37;36.15;;;21.73;;
59006;SDS011;44792;52.760;6.726;2024-02-15T05:26:05;34.80;;;20.75;;
59006;SDS011;44792;52.760;6.726;2024-02-15T05:28:31;41.42;;;20.80;;
59006;SDS011;44792;52.760;6.726;2024-02-15T05:33:52;42.65;;;20.27;;
59006;SDS011;44792;52.760;6.726;2024-02-15T05:36:19;35.90;;;20.80;;
59006;SDS011;44792;52.760;6.726;2024-02-15T05:38:54;36.72;;;19.80;;
59006;SDS011;44792;52.760;6.726;2024-02-15T05:41:20;38.40;;;19.58;;
59006;SDS011;44792;52.760;6.726;2024-02-15T05:43:46;40.58;;;20.35;;
59006;SDS011;44792;52.760;6.726;2024-02-15T05:46:18;33.45;;;19.17;;
59006;SDS011;44792;52.760;6.726;2024-02-15T05:48:43;35.97;;;20.58;;
59006;SDS011;44792;52.760;6.726;2024-02-15T05:51:09;37.83;;;21.05;;
59006;SDS011;44792;52.760;6.726;2024-02-15T05:53:35;35.97;;;20.05;;
59006;SDS011;44792;52.760;6.726;2024-02-15T05:56:05;40.08;;;20.33;;
59006;SDS011;44792;52.760;6.726;2024-02-15T05:58:35;34.03;;;19.30;;
59006;SDS011;44792;52.760;6.726;2024-02-15T06:01:03;39.03;;;19.65;;
59006;SDS011;44792;52.760;6.726;2024-02-15T06:03:32;35.35;;;18.98;;
59006;SDS011;44792;52.760;6.726;2024-02-15T06:05:59;34.67;;;19.50;;
59006;SDS011;44792;52.760;6.726;2024-02-15T06:08:30;36.15;;;18.17;;
59006;SDS011;44792;52.760;6.726;2024-02-15T06:10:56;31.23;;;18.38;;
59006;SDS011;44792;52.760;6.726;2024-02-15T06:13:22;36.90;;;18.70;;
59006;SDS011;44792;52.760;6.726;2024-02-15T06:15:49;34.72;;;17.27;;
59006;SDS011;44792;52.760;6.726;2024-02-15T06:18:22;33.47;;;17.60;;
59006;SDS011;44792;52.760;6.726;2024-02-15T06:20:54;29.90;;;17.65;;
59006;SDS011;44792;52.760;6.726;2024-02-15T06:23:24;33.70;;;18.00;;
59006;SDS011;44792;52.760;6.726;2024-02-15T06:25:52;29.70;;;16.98;;
59006;SDS011;44792;52.760;6.726;2024-02-15T06:28:19;38.83;;;17.38;;
59006;SDS011;44792;52.760;6.726;2024-02-15T06:31:04;30.42;;;16.60;;
59006;SDS011;44792;52.760;6.726;2024-02-15T06:33:49;32.55;;;16.70;;
59006;SDS011;44792;52.760;6.726;2024-02-15T06:36:33;30.52;;;17.10;;
59006;SDS011;44792;52.760;6.726;2024-02-15T06:39:22;23.88;;;15.23;;
59006;SDS011;44792;52.760;6.726;2024-02-15T06:42:05;24.13;;;14.77;;
59006;SDS011;44792;52.760;6.726;2024-02-15T06:44:32;33.20;;;15.05;;
59006;SDS011;44792;52.760;6.726;2024-02-15T06:46:57;26.55;;;15.23;;
59006;SDS011;44792;52.760;6.726;2024-02-15T06:49:23;31.48;;;15.65;;
59006;SDS011;44792;52.760;6.726;2024-02-15T06:51:52;26.52;;;14.82;;
59006;SDS011;44792;52.760;6.726;2024-02-15T06:54:18;34.85;;;14.60;;
59006;SDS011;44792;52.760;6.726;2024-02-15T06:56:46;27.90;;;14.07;;
59006;SDS011;44792;52.760;6.726;2024-02-15T06:59:12;29.17;;;14.45;;
59006;SDS011;44792;52.760;6.726;2024-02-15T07:01:45;32.88;;;14.82;;
59006;SDS011;44792;52.760;6.726;2024-02-15T07:04:11;32.28;;;14.30;;
59006;SDS011;44792;52.760;6.726;2024-02-15T07:06:37;29.08;;;14.68;;
59006;SDS011;44792;52.760;6.726;2024-02-15T07:09:04;31.40;;;14.40;;
59006;SDS011;44792;52.760;6.726;2024-02-15T07:11:31;34.63;;;15.23;;
59006;SDS011;44792;52.760;6.726;2024-02-15T07:14:00;29.70;;;14.77;;
59006;SDS011;44792;52.760;6.726;2024-02-15T07:16:27;25.92;;;14.32;;
59006;SDS011;44792;52.760;6.726;2024-02-15T07:18:52;26.85;;;14.38;;
59006;SDS011;44792;52.760;6.726;2024-02-15T07:21:21;25.15;;;14.57;;
59006;SDS011;44792;52.760;6.726;2024-02-15T07:23:52;28.02;;;13.80;;
59006;SDS011;44792;52.760;6.726;2024-02-15T07:26:21;25.52;;;13.93;;
59006;SDS011;44792;52.760;6.726;2024-02-15T07:28:51;26.83;;;13.88;;
59006;SDS011;44792;52.760;6.726;2024-02-15T07:31:18;30.75;;;14.05;;
59006;SDS011;44792;52.760;6.726;2024-02-15T07:33:46;25.38;;;14.23;;
59006;SDS011;44792;52.760;6.726;2024-02-15T07:36:13;27.48;;;14.30;;
59006;SDS011;44792;52.760;6.726;2024-02-15T07:38:43;24.27;;;13.70;;
59006;SDS011;44792;52.760;6.726;2024-02-15T07:41:10;20.98;;;12.55;;
59006;SDS011;44792;52.760;6.726;2024-02-15T07:43:37;25.25;;;14.07;;
59006;SDS011;44792;52.760;6.726;2024-02-15T07:46:04;25.25;;;12.88;;
59006;SDS011;44792;52.760;6.726;2024-02-15T07:48:30;24.33;;;12.90;;
59006;SDS011;44792;52.760;6.726;2024-02-15T07:50:56;24.48;;;13.32;;
59006;SDS011;44792;52.760;6.726;2024-02-15T07:53:23;24.45;;;12.88;;
59006;SDS011;44792;52.760;6.726;2024-02-15T07:55:50;30.08;;;13.93;;
59006;SDS011;44792;52.760;6.726;2024-02-15T07:58:16;24.42;;;14.25;;
59006;SDS011;44792;52.760;6.726;2024-02-15T08:00:44;34.45;;;15.07;;
59006;SDS011;44792;52.760;6.726;2024-02-15T08:03:10;31.42;;;14.32;;
59006;SDS011;44792;52.760;6.726;2024-02-15T08:05:36;31.67;;;13.85;;
59006;SDS011;44792;52.760;6.726;2024-02-15T08:08:03;23.77;;;13.52;;
59006;SDS011;44792;52.760;6.726;2024-02-15T08:10:29;29.55;;;15.35;;
59006;SDS011;44792;52.760;6.726;2024-02-15T08:12:55;25.30;;;13.85;;
59006;SDS011;44792;52.760;6.726;2024-02-15T08:15:23;31.60;;;14.10;;
59006;SDS011;44792;52.760;6.726;2024-02-15T08:17:49;25.80;;;14.40;;
59006;SDS011;44792;52.760;6.726;2024-02-15T08:20:15;22.17;;;12.48;;
59006;SDS011;44792;52.760;6.726;2024-02-15T08:22:47;26.17;;;13.40;;
59006;SDS011;44792;52.760;6.726;2024-02-15T08:25:13;26.80;;;13.52;;
59006;SDS011;44792;52.760;6.726;2024-02-15T08:27:41;22.73;;;13.55;;
59006;SDS011;44792;52.760;6.726;2024-02-15T08:30:14;23.90;;;13.65;;
59006;SDS011;44792;52.760;6.726;2024-02-15T08:32:40;25.05;;;12.18;;
59006;SDS011;44792;52.760;6.726;2024-02-15T08:35:07;22.08;;;12.20;;
59006;SDS011;44792;52.760;6.726;2024-02-15T08:37:36;22.08;;;12.38;;
59006;SDS011;44792;52.760;6.726;2024-02-15T08:40:07;17.38;;;10.90;;
59006;SDS011;44792;52.760;6.726;2024-02-15T08:42:40;15.82;;;10.77;;
59006;SDS011;44792;52.760;6.726;2024-02-15T08:45:07;18.63;;;10.75;;
59006;SDS011;44792;52.760;6.726;2024-02-15T08:47:36;18.95;;;11.15;;
59006;SDS011;44792;52.760;6.726;2024-02-15T08:50:03;21.10;;;9.80;;
59006;SDS011;44792;52.760;6.726;2024-02-15T08:52:30;15.73;;;10.30;;
59006;SDS011;44792;52.760;6.726;2024-02-15T08:54:55;19.85;;;9.98;;
59006;SDS011;44792;52.760;6.726;2024-02-15T08:57:22;14.40;;;10.55;;
59006;SDS011;44792;52.760;6.726;2024-02-15T08:59:49;15.63;;;9.45;;
59006;SDS011;44792;52.760;6.726;2024-02-15T09:02:17;14.68;;;8.73;;
59006;SDS011;44792;52.760;6.726;2024-02-15T09:04:46;15.35;;;9.25;;
59006;SDS011;44792;52.760;6.726;2024-02-15T09:07:11;14.00;;;9.70;;
59006;SDS011;44792;52.760;6.726;2024-02-15T09:09:37;15.63;;;9.77;;
59006;SDS011;44792;52.760;6.726;2024-02-15T09:12:03;14.63;;;9.52;;
59006;SDS011;44792;52.760;6.726;2024-02-15T09:14:31;14.98;;;8.52;;
59006;SDS011;44792;52.760;6.726;2024-02-15T09:16:58;14.43;;;9.23;;
59006;SDS011;44792;52.760;6.726;2024-02-15T09:19:25;12.95;;;9.15;;
59006;SDS011;44792;52.760;6.726;2024-02-15T09:21:50;13.55;;;8.90;;
59006;SDS011;44792;52.760;6.726;2024-02-15T09:24:16;11.35;;;8.63;;
59006;SDS011;44792;52.760;6.726;2024-02-15T09:26:42;13.48;;;8.40;;
59006;SDS011;44792;52.760;6.726;2024-02-15T09:29:09;15.30;;;9.00;;
59006;SDS011;44792;52.760;6.726;2024-02-15T09:31:35;17.52;;;8.35;;
59006;SDS011;44792;52.760;6.726;2024-02-15T09:34:01;15.20;;;9.02;;
59006;SDS011;44792;52.760;6.726;2024-02-15T09:36:34;13.45;;;8.20;;
59006;SDS011;44792;52.760;6.726;2024-02-15T09:39:03;18.88;;;9.05;;
59006;SDS011;44792;52.760;6.726;2024-02-15T09:41:29;17.25;;;11.73;;
59006;SDS011;44792;52.760;6.726;2024-02-15T09:43:55;17.38;;;10.20;;
59006;SDS011;44792;52.760;6.726;2024-02-15T09:46:22;18.63;;;9.07;;
59006;SDS011;44792;52.760;6.726;2024-02-15T09:48:50;12.60;;;7.97;;
59006;SDS011;44792;52.760;6.726;2024-02-15T09:51:17;13.70;;;8.88;;
59006;SDS011;44792;52.760;6.726;2024-02-15T09:53:46;12.95;;;8.65;;
59006;SDS011;44792;52.760;6.726;2024-02-15T09:56:13;12.48;;;9.07;;
59006;SDS011;44792;52.760;6.726;2024-02-15T09:58:40;15.65;;;8.20;;
59006;SDS011;44792;52.760;6.726;2024-02-15T10:01:06;8.98;;;7.43;;
59006;SDS011;44792;52.760;6.726;2024-02-15T10:03:38;11.63;;;7.88;;
59006;SDS011;44792;52.760;6.726;2024-02-15T10:06:05;9.27;;;6.75;;
59006;SDS011;44792;52.760;6.726;2024-02-15T10:08:31;6.85;;;5.75;;
59006;SDS011;44792;52.760;6.726;2024-02-15T10:11:09;7.50;;;6.20;;
59006;SDS011;44792;52.760;6.726;2024-02-15T10:13:36;10.93;;;6.47;;
59006;SDS011;44792;52.760;6.726;2024-02-15T10:16:17;10.80;;;6.15;;
59006;SDS011;44792;52.760;6.726;2024-02-15T10:18:45;7.45;;;6.22;;
59006;SDS011;44792;52.760;6.726;2024-02-15T10:21:33;9.07;;;6.22;;
59006;SDS011;44792;52.760;6.726;2024-02-15T10:24:06;7.03;;;5.88;;
59006;SDS011;44792;52.760;6.726;2024-02-15T10:26:33;7.68;;;5.60;;
59006;SDS011;44792;52.760;6.726;2024-02-15T10:29:06;7.93;;;5.25;;
59006;SDS011;44792;52.760;6.726;2024-02-15T10:31:39;11.55;;;5.35;;
59006;SDS011;44792;52.760;6.726;2024-02-15T10:34:16;8.05;;;5.80;;
59006;SDS011;44792;52.760;6.726;2024-02-15T10:36:44;7.95;;;4.97;;
59006;SDS011;44792;52.760;6.726;2024-02-15T10:39:19;9.95;;;5.45;;
59006;SDS011;44792;52.760;6.726;2024-02-15T10:44:13;6.45;;;4.78;;
59006;SDS011;44792;52.760;6.726;2024-02-15T10:46:42;5.93;;;4.90;;
59006;SDS011;44792;52.760;6.726;2024-02-15T10:49:08;4.97;;;4.25;;
59006;SDS011;44792;52.760;6.726;2024-02-15T10:51:34;6.47;;;4.40;;
59006;SDS011;44792;52.760;6.726;2024-02-15T10:54:03;6.50;;;4.10;;
59006;SDS011;44792;52.760;6.726;2024-02-15T10:56:36;5.13;;;4.28;;
59006;SDS011;44792;52.760;6.726;2024-02-15T10:59:13;7.13;;;3.83;;
59006;SDS011;44792;52.760;6.726;2024-02-15T11:01:43;4.13;;;3.72;;
59006;SDS011;44792;52.760;6.726;2024-02-15T11:04:15;6.28;;;3.65;;
59006;SDS011;44792;52.760;6.726;2024-02-15T11:06:46;5.22;;;4.07;;
59006;SDS011;44792;52.760;6.726;2024-02-15T11:09:15;4.43;;;3.22;;
59006;SDS011;44792;52.760;6.726;2024-02-15T11:11:42;3.47;;;2.70;;
59006;SDS011;44792;52.760;6.726;2024-02-15T11:17:03;3.80;;;3.13;;
59006;SDS011;44792;52.760;6.726;2024-02-15T11:21:58;4.60;;;2.60;;
59006;SDS011;44792;52.760;6.726;2024-02-15T11:24:27;6.05;;;3.03;;
59006;SDS011;44792;52.760;6.726;2024-02-15T11:27:01;3.65;;;2.75;;
59006;SDS011;44792;52.760;6.726;2024-02-15T11:35:09;2.83;;;2.63;;
59006;SDS011;44792;52.760;6.726;2024-02-15T11:43:00;4.75;;;2.92;;
59006;SDS011;44792;52.760;6.726;2024-02-15T11:45:28;3.92;;;2.60;;
59006;SDS011;44792;52.760;6.726;2024-02-15T11:48:10;3.25;;;2.83;;
59006;SDS011;44792;52.760;6.726;2024-02-15T11:50:37;3.45;;;3.10;;
59006;SDS011;44792;52.760;6.726;2024-02-15T11:53:07;4.40;;;3.35;;
59006;SDS011;44792;52.760;6.726;2024-02-15T11:55:40;4.88;;;3.22;;
59006;SDS011;44792;52.760;6.726;2024-02-15T11:58:07;3.92;;;3.08;;
59006;SDS011;44792;52.760;6.726;2024-02-15T12:00:33;4.13;;;3.03;;
59006;SDS011;44792;52.760;6.726;2024-02-15T12:03:18;4.25;;;3.28;;
59006;SDS011;44792;52.760;6.726;2024-02-15T12:06:03;3.92;;;3.60;;
59006;SDS011;44792;52.760;6.726;2024-02-15T12:08:48;3.30;;;2.97;;
59006;SDS011;44792;52.760;6.726;2024-02-15T12:11:36;5.72;;;3.83;;
59006;SDS011;44792;52.760;6.726;2024-02-15T12:14:21;4.32;;;3.17;;
59006;SDS011;44792;52.760;6.726;2024-02-15T12:17:05;7.70;;;3.55;;
59006;SDS011;44792;52.760;6.726;2024-02-15T12:19:51;6.20;;;3.92;;
59006;SDS011;44792;52.760;6.726;2024-02-15T12:22:21;4.20;;;3.33;;
59006;SDS011;44792;52.760;6.726;2024-02-15T12:29:55;4.70;;;3.58;;
59006;SDS011;44792;52.760;6.726;2024-02-15T12:32:23;7.72;;;4.10;;
59006;SDS011;44792;52.760;6.726;2024-02-15T12:34:53;7.32;;;4.15;;
59006;SDS011;44792;52.760;6.726;2024-02-15T12:37:20;5.70;;;3.95;;
59006;SDS011;44792;52.760;6.726;2024-02-15T12:39:48;6.88;;;3.95;;
59006;SDS011;44792;52.760;6.726;2024-02-15T12:42:14;12.63;;;4.45;;
59006;SDS011;44792;52.760;6.726;2024-02-15T12:44:45;7.30;;;4.45;;
59006;SDS011;44792;52.760;6.726;2024-02-15T12:47:21;7.78;;;4.70;;
59006;SDS011;44792;52.760;6.726;2024-02-15T12:49:48;7.97;;;4.75;;
59006;SDS011;44792;52.760;6.726;2024-02-15T12:52:32;9.50;;;5.07;;
59006;SDS011;44792;52.760;6.726;2024-02-15T12:55:11;8.45;;;4.60;;
59006;SDS011;44792;52.760;6.726;2024-02-15T12:57:42;9.95;;;4.72;;
59006;SDS011;44792;52.760;6.726;2024-02-15T13:00:16;7.18;;;5.15;;
59006;SDS011;44792;52.760;6.726;2024-02-15T13:02:47;11.18;;;5.13;;
59006;SDS011;44792;52.760;6.726;2024-02-15T13:05:17;9.68;;;5.93;;
59006;SDS011;44792;52.760;6.726;2024-02-15T13:07:47;10.00;;;5.63;;
59006;SDS011;44792;52.760;6.726;2024-02-15T13:10:13;9.82;;;6.35;;
59006;SDS011;44792;52.760;6.726;2024-02-15T13:12:43;8.70;;;5.25;;
59006;SDS011;44792;52.760;6.726;2024-02-15T13:15:14;10.75;;;5.82;;
59006;SDS011;44792;52.760;6.726;2024-02-15T13:17:45;9.68;;;5.93;;
59006;SDS011;44792;52.760;6.726;2024-02-15T13:20:14;7.60;;;6.00;;
59006;SDS011;44792;52.760;6.726;2024-02-15T13:22:41;10.38;;;5.55;;
59006;SDS011;44792;52.760;6.726;2024-02-15T13:25:08;13.63;;;6.15;;
59006;SDS011;44792;52.760;6.726;2024-02-15T13:27:35;8.30;;;5.60;;
59006;SDS011;44792;52.760;6.726;2024-02-15T13:30:03;11.45;;;5.93;;
59006;SDS011;44792;52.760;6.726;2024-02-15T13:32:33;13.50;;;6.88;;
59006;SDS011;44792;52.760;6.726;2024-02-15T13:35:06;12.27;;;6.65;;
59006;SDS011;44792;52.760;6.726;2024-02-15T13:37:42;9.60;;;6.25;;
59006;SDS011;44792;52.760;6.726;2024-02-15T13:40:12;10.93;;;6.07;;
59006;SDS011;44792;52.760;6.726;2024-02-15T13:42:42;13.77;;;6.85;;
59006;SDS011;44792;52.760;6.726;2024-02-15T13:45:12;11.18;;;6.70;;
59006;SDS011;44792;52.760;6.726;2024-02-15T13:47:39;9.70;;;6.18;;
59006;SDS011;44792;52.760;6.726;2024-02-15T13:50:04;12.93;;;6.95;;
59006;SDS011;44792;52.760;6.726;2024-02-15T13:52:30;11.90;;;6.50;;
59006;SDS011;44792;52.760;6.726;2024-02-15T13:54:56;11.07;;;6.30;;
59006;SDS011;44792;52.760;6.726;2024-02-15T13:57:22;13.85;;;6.40;;
59006;SDS011;44792;52.760;6.726;2024-02-15T13:59:48;12.77;;;6.65;;
59006;SDS011;44792;52.760;6.726;2024-02-15T14:02:14;11.60;;;6.63;;
59006;SDS011;44792;52.760;6.726;2024-02-15T14:04:39;12.32;;;6.22;;
59006;SDS011;44792;52.760;6.726;2024-02-15T14:07:05;11.23;;;7.03;;
59006;SDS011;44792;52.760;6.726;2024-02-15T14:09:31;11.50;;;6.50;;
59006;SDS011;44792;52.760;6.726;2024-02-15T14:11:56;13.63;;;7.18;;
59006;SDS011;44792;52.760;6.726;2024-02-15T14:14:23;14.50;;;7.20;;
59006;SDS011;44792;52.760;6.726;2024-02-15T14:16:48;9.52;;;7.32;;
59006;SDS011;44792;52.760;6.726;2024-02-15T14:19:14;12.90;;;7.60;;
59006;SDS011;44792;52.760;6.726;2024-02-15T14:21:40;9.45;;;7.05;;
59006;SDS011;44792;52.760;6.726;2024-02-15T14:24:07;14.95;;;6.90;;
59006;SDS011;44792;52.760;6.726;2024-02-15T14:26:33;10.45;;;7.07;;
59006;SDS011;44792;52.760;6.726;2024-02-15T14:28:59;15.15;;;6.47;;
59006;SDS011;44792;52.760;6.726;2024-02-15T14:31:28;11.98;;;7.10;;
59006;SDS011;44792;52.760;6.726;2024-02-15T14:34:14;15.77;;;7.25;;
59006;SDS011;44792;52.760;6.726;2024-02-15T14:36:41;16.25;;;7.07;;
59006;SDS011;44792;52.760;6.726;2024-02-15T14:39:07;11.75;;;7.45;;
59006;SDS011;44792;52.760;6.726;2024-02-15T14:41:34;18.30;;;8.13;;
59006;SDS011;44792;52.760;6.726;2024-02-15T14:44:00;13.80;;;7.35;;
59006;SDS011;44792;52.760;6.726;2024-02-15T14:46:26;15.40;;;7.38;;
59006;SDS011;44792;52.760;6.726;2024-02-15T14:48:52;15.45;;;7.28;;
59006;SDS011;44792;52.760;6.726;2024-02-15T14:51:19;12.70;;;7.53;;
59006;SDS011;44792;52.760;6.726;2024-02-15T14:53:45;16.52;;;9.98;;
59006;SDS011;44792;52.760;6.726;2024-02-15T14:56:11;22.38;;;9.75;;
59006;SDS011;44792;52.760;6.726;2024-02-15T14:58:36;21.80;;;9.02;;
59006;SDS011;44792;52.760;6.726;2024-02-15T15:01:03;20.83;;;10.18;;